< < Back
Terminal Aerodrome Forecast


Current Version              Previous Versions:   1  2  3  4  5  6  7  8  9  

Terminal Aerodrome Forecast

037
FTUS44 KHUN 242231 AAA
TAFHSV
TAF AMD
KHSV 242231Z 2423/2518 16013G23KT P6SM BKN050
      TEMPO 2500/2501 5SM -TSRA BR BKN030CB
     FM250100 15010G20KT P6SM -SHRA BKN040
     FM250600 14013KT P6SM OVC050
     FM251000 13014G21KT P6SM OVC025
     FM251500 17011KT P6SM VCSH SCT025 OVC035=



Latest METAR

626
SAUS80 KWBC 250700 RRB
MTRHSV
METAR KHSV 250653Z AUTO 13010KT 10SM BKN060 22/18 A3012 RMK AO2 SLP192
T02220178


USA.gov is the U.S. government's official web portal to all federal, state and local government web resources and services.